Terminal Aerodrome Forecast
Issued by NWS

Home | Current Version | Previous Version | Text Only | Print | Product List | Glossary On
Versions: 1 2 3 4 5 6 7 8 9 10 11 12 13 14 15 16 17 18 19 20 21 22 23 24
881
FTUS43 KDLH 262338
TAFHYR
TAF
KHYR 262338Z 2700/2724 20003KT P6SM FEW050 BKN200
     FM270900 VRB03KT 5SM BR BKN150
      TEMPO 2711/2713 2SM BR
     FM271400 15004KT P6SM SCT030 BKN120
     FM272000 14006KT P6SM VCSH SCT040 BKN100=

USA.gov is the U.S. government's official web portal to all federal, state and local government web resources and services.